createdAt,value
2023-08-17T00:01:30.402Z,96.54
2023-08-17T00:04:01.707Z,96.09
2023-08-17T00:06:31.606Z,96.32
2023-08-17T00:09:01.150Z,96.51
2023-08-17T00:11:30.784Z,97.44
2023-08-17T00:14:00.395Z,98.03
2023-08-17T00:16:30.451Z,97.43
2023-08-17T00:19:01.546Z,97.55
2023-08-17T00:21:31.003Z,98.14
2023-08-17T00:24:00.677Z,98.07
2023-08-17T00:26:30.121Z,98.29
2023-08-17T00:28:59.692Z,97.52
2023-08-17T00:31:29.364Z,97.16
2023-08-17T00:34:00.509Z,97.26
2023-08-17T00:36:30.136Z,97.02
2023-08-17T00:38:59.730Z,99.11
2023-08-17T00:41:29.988Z,99.46
2023-08-17T00:43:59.727Z,99.29
2023-08-17T00:47:52.264Z,98.81
2023-08-17T00:50:22.215Z,98.49
2023-08-17T00:52:52.168Z,98.49
2023-08-17T00:55:22.093Z,98.61
2023-08-17T00:57:51.995Z,98.91
2023-08-17T01:00:22.426Z,98.33
2023-08-17T01:02:54.464Z,97.77
2023-08-17T01:05:24.470Z,98.49
2023-08-17T01:07:54.095Z,98.59
2023-08-17T01:10:23.862Z,99.26
2023-08-17T01:13:06.463Z,99.28
2023-08-17T01:15:41.345Z,100.00
2023-08-17T01:18:24.707Z,100.00
2023-08-17T01:20:57.189Z,100.00
2023-08-17T01:23:28.422Z,100.00
2023-08-17T01:25:58.783Z,100.00
2023-08-17T01:28:28.569Z,100.00
2023-08-17T01:31:02.307Z,100.00
2023-08-17T01:33:38.103Z,100.00
2023-08-17T01:36:15.997Z,100.00
2023-08-17T01:38:49.384Z,100.00
2023-08-17T01:41:19.960Z,100.00
2023-08-17T01:43:50.173Z,100.00
2023-08-17T01:46:21.970Z,100.00
2023-08-17T01:48:51.728Z,100.00
2023-08-17T01:51:22.429Z,100.00
2023-08-17T01:53:53.562Z,100.00
2023-08-17T01:56:23.055Z,100.00
2023-08-17T01:58:52.694Z,100.00
2023-08-17T02:01:22.433Z,100.00
2023-08-17T02:03:52.002Z,100.00
2023-08-17T02:06:21.729Z,100.00
2023-08-17T02:08:53.131Z,100.00
2023-08-17T02:11:22.873Z,100.00
2023-08-17T02:13:52.338Z,100.00
2023-08-17T02:16:21.981Z,100.00
2023-08-17T02:18:51.364Z,100.00
2023-08-17T02:21:21.133Z,100.00
2023-08-17T02:23:52.137Z,100.00
2023-08-17T02:26:21.752Z,100.00
2023-08-17T02:28:51.232Z,100.00
2023-08-17T02:31:20.794Z,100.00
2023-08-17T02:33:50.461Z,100.00
2023-08-17T02:36:20.096Z,100.00
2023-08-17T02:38:49.681Z,100.00
2023-08-17T02:41:20.763Z,100.00
2023-08-17T02:43:50.362Z,100.00
2023-08-17T02:46:20.054Z,100.00
2023-08-17T02:48:49.864Z,100.00
2023-08-17T02:51:19.381Z,100.00
2023-08-17T02:53:49.431Z,100.00
2023-08-17T02:56:20.280Z,100.00
2023-08-17T02:58:49.849Z,100.00
2023-08-17T03:01:19.583Z,100.00
2023-08-17T03:03:49.303Z,100.00
2023-08-17T03:06:18.751Z,100.00
2023-08-17T03:08:48.477Z,100.00
2023-08-17T03:11:19.489Z,100.00
2023-08-17T03:13:49.945Z,100.00
2023-08-17T03:16:19.504Z,100.00
2023-08-17T03:18:49.545Z,100.00
2023-08-17T03:21:19.839Z,100.00
2023-08-17T03:23:49.418Z,100.00
2023-08-17T03:26:20.360Z,100.00
2023-08-17T03:28:49.966Z,100.00
2023-08-17T03:31:20.142Z,100.00
2023-08-17T03:33:49.835Z,100.00
2023-08-17T03:36:19.482Z,100.00
2023-08-17T03:38:49.017Z,100.00
2023-08-17T03:41:20.115Z,100.00
2023-08-17T03:43:49.628Z,100.00
2023-08-17T03:48:52.111Z,100.00
2023-08-17T03:51:21.796Z,100.00
2023-08-17T03:53:51.217Z,100.00
2023-08-17T03:56:20.832Z,100.00
2023-08-17T03:58:50.283Z,100.00
2023-08-17T04:01:19.774Z,100.00
2023-08-17T04:03:50.732Z,100.00
2023-08-17T04:06:20.162Z,100.00
2023-08-17T04:08:49.586Z,100.00
2023-08-17T04:11:19.132Z,100.00
2023-08-17T04:13:48.810Z,100.00
2023-08-17T04:16:18.321Z,100.00
2023-08-17T04:18:47.930Z,100.00
2023-08-17T04:21:19.010Z,100.00
2023-08-17T04:23:48.752Z,100.00
2023-08-17T04:26:18.165Z,100.00
2023-08-17T04:28:48.299Z,100.00
2023-08-17T04:31:18.681Z,100.00
2023-08-17T04:33:48.420Z,100.00
2023-08-17T04:36:19.516Z,100.00
2023-08-17T04:38:49.203Z,99.95
2023-08-17T04:41:18.224Z,97.24
2023-08-17T04:43:48.941Z,93.87
2023-08-17T04:46:18.475Z,93.38
2023-08-17T04:48:48.089Z,93.05
2023-08-17T04:51:19.234Z,91.01
2023-08-17T04:53:48.869Z,88.63
2023-08-17T04:56:18.463Z,86.93
2023-08-17T04:58:48.096Z,84.69
2023-08-17T05:01:17.693Z,83.58
2023-08-17T05:03:48.130Z,82.06
2023-08-17T05:06:19.302Z,81.24
2023-08-17T05:08:48.820Z,80.69
2023-08-17T05:11:18.540Z,79.49
2023-08-17T05:13:48.101Z,79.60
2023-08-17T05:16:17.770Z,79.24
2023-08-17T05:18:47.282Z,76.43
2023-08-17T05:21:18.315Z,76.91
2023-08-17T05:23:47.892Z,74.62
2023-08-17T05:26:17.853Z,75.06
2023-08-17T05:28:47.610Z,75.21
2023-08-17T05:31:17.519Z,75.62
2023-08-17T05:33:46.906Z,74.31
2023-08-17T05:36:18.031Z,73.82
2023-08-17T05:38:47.498Z,73.41
2023-08-17T05:41:18.905Z,72.84
2023-08-17T05:43:49.738Z,72.39
2023-08-17T05:46:19.375Z,71.76
2023-08-17T05:48:48.937Z,71.28
2023-08-17T05:51:19.909Z,68.71
2023-08-17T05:53:49.550Z,68.89
2023-08-17T05:56:19.045Z,67.04
2023-08-17T05:58:48.585Z,68.44
2023-08-17T06:01:18.398Z,66.73
2023-08-17T06:03:48.445Z,66.64
2023-08-17T06:06:19.492Z,67.18
2023-08-17T06:08:49.032Z,66.65
2023-08-17T06:11:18.608Z,66.57
2023-08-17T06:13:48.062Z,64.80
2023-08-17T06:16:17.605Z,64.98
2023-08-17T06:18:47.258Z,63.65
2023-08-17T06:21:16.994Z,62.18
2023-08-17T06:23:47.920Z,63.22
2023-08-17T06:26:17.457Z,61.56
2023-08-17T06:28:46.905Z,62.58
2023-08-17T06:31:18.620Z,61.63
2023-08-17T06:33:48.641Z,61.86
2023-08-17T06:36:18.153Z,61.74
2023-08-17T06:38:49.132Z,59.03
2023-08-17T06:41:19.739Z,58.58
2023-08-17T06:43:49.200Z,59.09
2023-08-17T06:48:51.908Z,56.69
2023-08-17T06:51:21.446Z,56.23
2023-08-17T06:53:50.861Z,56.48
2023-08-17T06:56:20.415Z,57.86
2023-08-17T06:58:50.049Z,57.20
2023-08-17T07:01:19.591Z,56.73
2023-08-17T07:03:50.701Z,59.21
2023-08-17T07:06:20.881Z,57.77
2023-08-17T07:08:50.382Z,56.33
2023-08-17T07:11:19.880Z,55.94
2023-08-17T07:13:49.459Z,55.96
2023-08-17T07:16:19.055Z,55.89
2023-08-17T07:18:48.649Z,56.09
2023-08-17T07:21:19.858Z,56.66
2023-08-17T07:23:49.569Z,53.93
2023-08-17T07:26:20.376Z,52.66
2023-08-17T07:28:50.694Z,54.18
2023-08-17T07:31:20.344Z,55.02
2023-08-17T07:33:49.987Z,54.91
2023-08-17T07:36:20.985Z,51.46
2023-08-17T07:38:50.796Z,50.01
2023-08-17T07:41:20.373Z,50.51
2023-08-17T07:43:50.062Z,49.68
2023-08-17T07:46:19.745Z,50.62
2023-08-17T07:48:49.328Z,49.71
2023-08-17T07:51:20.572Z,48.99
2023-08-17T07:53:50.212Z,49.20
2023-08-17T07:56:19.881Z,49.45
2023-08-17T07:58:49.539Z,45.96
2023-08-17T08:01:19.602Z,48.32
2023-08-17T08:03:49.281Z,48.04
2023-08-17T08:06:21.767Z,47.88
2023-08-17T08:08:51.893Z,44.42
2023-08-17T08:11:21.484Z,45.27
2023-08-17T08:13:51.137Z,43.40
2023-08-17T08:16:20.645Z,43.13
2023-08-17T08:18:50.149Z,43.53
2023-08-17T08:21:21.227Z,41.89
2023-08-17T08:23:50.724Z,42.22
2023-08-17T08:26:20.278Z,44.06
2023-08-17T08:28:49.797Z,40.14
2023-08-17T08:31:19.359Z,43.07
2023-08-17T08:33:48.942Z,40.02
2023-08-17T08:36:20.010Z,38.95
2023-08-17T08:38:49.459Z,42.88
2023-08-17T08:41:19.002Z,39.62
2023-08-17T08:43:48.481Z,39.39
2023-08-17T08:46:20.407Z,40.13
2023-08-17T08:48:54.297Z,39.61
2023-08-17T08:51:31.175Z,40.97
2023-08-17T08:54:05.929Z,41.71
2023-08-17T08:56:37.845Z,42.05
2023-08-17T08:59:08.409Z,41.65
2023-08-17T09:01:38.686Z,41.18
2023-08-17T09:04:08.997Z,39.10
2023-08-17T09:06:42.076Z,38.84
2023-08-17T09:09:12.146Z,37.80
2023-08-17T09:11:44.713Z,39.17
2023-08-17T09:14:14.848Z,38.94
2023-08-17T09:16:44.318Z,39.52
2023-08-17T09:19:14.173Z,37.07
2023-08-17T09:24:20.052Z,38.89
2023-08-17T09:26:50.003Z,38.84
2023-08-17T09:29:24.487Z,36.48
2023-08-17T09:31:54.007Z,34.93
2023-08-17T09:34:23.790Z,36.56
2023-08-17T09:36:54.808Z,33.00
2023-08-17T09:39:24.313Z,32.38
2023-08-17T09:41:53.922Z,36.53
2023-08-17T09:44:23.429Z,34.06
2023-08-17T09:48:52.689Z,35.92
2023-08-17T09:51:22.327Z,37.59
2023-08-17T09:53:59.985Z,37.91
2023-08-17T09:56:31.225Z,37.26
2023-08-17T09:59:00.793Z,35.56
2023-08-17T10:01:32.673Z,35.66
2023-08-17T10:04:06.724Z,35.61
2023-08-17T10:06:39.008Z,37.14
2023-08-17T10:09:10.461Z,37.63
2023-08-17T10:11:43.409Z,36.35
2023-08-17T10:14:20.917Z,35.08
2023-08-17T10:17:01.124Z,37.13
2023-08-17T10:19:41.950Z,36.30
2023-08-17T10:22:21.907Z,35.65
2023-08-17T10:24:52.808Z,37.18
2023-08-17T10:27:24.770Z,35.08
2023-08-17T10:29:55.063Z,36.47
2023-08-17T10:32:27.465Z,36.69
2023-08-17T10:35:01.292Z,34.88
2023-08-17T10:37:32.122Z,35.51
2023-08-17T10:40:01.686Z,35.79
2023-08-17T10:42:36.607Z,36.43
2023-08-17T10:45:32.181Z,39.32
2023-08-17T10:48:30.939Z,40.73
2023-08-17T10:51:07.762Z,40.38
2023-08-17T10:53:44.113Z,40.69
2023-08-17T10:56:17.711Z,39.81
2023-08-17T10:58:47.755Z,38.93
2023-08-17T11:01:22.490Z,37.83
2023-08-17T11:04:13.903Z,39.06
2023-08-17T11:06:46.357Z,40.20
2023-08-17T11:09:19.800Z,40.32
2023-08-17T11:11:56.653Z,40.44
2023-08-17T11:14:26.312Z,40.78
2023-08-17T11:16:55.978Z,41.97
2023-08-17T11:19:25.423Z,40.94
2023-08-17T11:21:56.599Z,40.64
2023-08-17T11:24:29.386Z,40.17
2023-08-17T11:27:00.472Z,40.35
2023-08-17T11:29:34.660Z,41.31
2023-08-17T11:32:04.270Z,40.89
2023-08-17T11:34:35.193Z,42.09
2023-08-17T11:37:06.760Z,41.99
2023-08-17T11:39:36.880Z,42.10
2023-08-17T11:42:07.403Z,42.02
2023-08-17T11:44:37.451Z,42.38
2023-08-17T11:47:07.819Z,42.12
2023-08-17T11:49:38.852Z,42.22
2023-08-17T11:52:13.087Z,42.81
2023-08-17T11:54:44.176Z,42.69
2023-08-17T11:57:13.873Z,43.00
2023-08-17T11:59:43.953Z,43.27
2023-08-17T12:02:13.683Z,42.41
2023-08-17T12:04:43.384Z,42.26
2023-08-17T12:07:15.110Z,40.65
2023-08-17T12:09:45.125Z,42.46
2023-08-17T12:12:15.206Z,42.68
2023-08-17T12:14:46.393Z,42.45
2023-08-17T12:17:18.707Z,41.33
2023-08-17T12:19:52.579Z,41.38
2023-08-17T12:22:27.378Z,41.78
2023-08-17T12:24:57.319Z,42.39
2023-08-17T12:27:26.939Z,41.34
2023-08-17T12:29:56.310Z,42.21
2023-08-17T12:32:26.167Z,41.57
2023-08-17T12:34:55.970Z,42.58
2023-08-17T12:37:26.963Z,41.45
2023-08-17T12:39:56.513Z,42.41
2023-08-17T12:42:26.126Z,41.87
2023-08-17T12:44:55.722Z,41.35
2023-08-17T12:48:51.625Z,41.00
2023-08-17T12:51:21.143Z,40.75
2023-08-17T12:53:50.798Z,41.31
2023-08-17T12:56:20.542Z,40.66
2023-08-17T12:58:50.096Z,41.60
2023-08-17T13:01:20.298Z,42.08
2023-08-17T13:03:51.331Z,41.54
2023-08-17T13:06:20.861Z,42.60
2023-08-17T13:08:50.401Z,41.68
2023-08-17T13:11:20.170Z,42.24
2023-08-17T13:13:49.654Z,42.45
2023-08-17T13:16:19.911Z,42.34
2023-08-17T13:18:50.892Z,42.11
2023-08-17T13:21:21.678Z,42.09
2023-08-17T13:23:51.181Z,42.59
2023-08-17T13:26:20.757Z,43.27
2023-08-17T13:28:50.143Z,42.18
2023-08-17T13:31:24.867Z,43.04
2023-08-17T13:33:56.303Z,42.32
2023-08-17T13:36:25.907Z,43.41
2023-08-17T13:38:55.317Z,42.65
2023-08-17T13:41:26.452Z,42.98
2023-08-17T13:44:00.321Z,42.67
2023-08-17T13:46:30.602Z,43.78
2023-08-17T13:49:01.581Z,44.03
2023-08-17T13:51:31.119Z,44.86
2023-08-17T13:54:00.604Z,45.91
2023-08-17T13:56:30.289Z,46.31
2023-08-17T13:58:59.824Z,45.85
2023-08-17T14:01:29.902Z,45.89
2023-08-17T14:04:01.111Z,45.42
2023-08-17T14:06:30.819Z,45.64
2023-08-17T14:09:00.554Z,45.68
2023-08-17T14:11:29.938Z,45.99
2023-08-17T14:13:59.617Z,46.26
2023-08-17T14:16:29.080Z,45.84
2023-08-17T14:19:00.149Z,46.62
2023-08-17T14:21:29.590Z,46.73
2023-08-17T14:23:59.121Z,46.62
2023-08-17T14:26:58.084Z,47.17
2023-08-17T14:29:27.718Z,47.42
2023-08-17T14:31:57.315Z,48.18
2023-08-17T14:34:28.187Z,48.19
2023-08-17T14:36:57.704Z,48.69
2023-08-17T14:39:27.206Z,48.99
2023-08-17T14:41:56.846Z,48.90
2023-08-17T14:44:26.654Z,49.22
2023-08-17T14:46:56.214Z,49.64
2023-08-17T14:49:27.502Z,48.99
2023-08-17T14:51:57.365Z,49.71
2023-08-17T14:54:27.670Z,49.90
2023-08-17T14:56:57.674Z,49.75
2023-08-17T14:59:27.530Z,50.31
2023-08-17T15:01:57.934Z,49.71
2023-08-17T15:04:28.898Z,50.04
2023-08-17T15:06:58.347Z,50.92
2023-08-17T15:09:27.973Z,50.68
2023-08-17T15:11:57.649Z,50.76
2023-08-17T15:14:27.191Z,50.88
2023-08-17T15:16:56.738Z,51.58
2023-08-17T15:19:39.823Z,50.87
2023-08-17T15:22:15.425Z,51.01
2023-08-17T15:24:46.134Z,51.10
2023-08-17T15:27:16.138Z,51.24
2023-08-17T15:29:45.943Z,51.67
2023-08-17T15:32:15.566Z,52.02
2023-08-17T15:34:46.542Z,52.14
2023-08-17T15:37:16.220Z,52.67
2023-08-17T15:39:45.867Z,52.56
2023-08-17T15:42:15.667Z,52.58
2023-08-17T15:44:45.215Z,52.66
2023-08-17T15:48:51.487Z,53.15
2023-08-17T15:51:21.086Z,52.99
2023-08-17T15:53:50.607Z,53.41
2023-08-17T15:56:21.498Z,53.43
2023-08-17T15:58:51.024Z,53.47
2023-08-17T16:01:20.549Z,53.55
2023-08-17T16:03:51.578Z,53.84
2023-08-17T16:06:21.193Z,53.74
2023-08-17T16:08:50.772Z,54.08
2023-08-17T16:11:20.434Z,54.07
2023-08-17T16:13:50.304Z,54.19
2023-08-17T16:16:20.226Z,54.51
2023-08-17T16:18:51.246Z,54.19
2023-08-17T16:21:20.874Z,54.63
2023-08-17T16:23:50.279Z,54.94
2023-08-17T16:26:19.809Z,55.01
2023-08-17T16:28:51.466Z,55.29
2023-08-17T16:31:20.885Z,55.36
2023-08-17T16:33:52.077Z,55.42
2023-08-17T16:36:21.770Z,55.74
2023-08-17T16:38:55.759Z,55.73
2023-08-17T16:41:25.648Z,56.63
2023-08-17T16:43:55.165Z,56.26
2023-08-17T16:46:24.932Z,56.62
2023-08-17T16:48:56.104Z,56.50
2023-08-17T16:51:25.696Z,56.79
2023-08-17T16:53:55.344Z,57.01
2023-08-17T16:56:25.382Z,56.99
2023-08-17T16:58:55.041Z,58.07
2023-08-17T17:01:24.777Z,58.25
2023-08-17T17:03:56.047Z,58.47
2023-08-17T17:06:25.647Z,58.55
2023-08-17T17:08:55.184Z,59.03
2023-08-17T17:11:24.806Z,58.52
2023-08-17T17:13:56.107Z,59.43
2023-08-17T17:16:27.347Z,59.72
2023-08-17T17:18:58.380Z,60.04
2023-08-17T17:21:28.105Z,59.57
2023-08-17T17:23:57.640Z,60.25
2023-08-17T17:26:27.199Z,60.67
2023-08-17T17:28:56.736Z,61.38
2023-08-17T17:31:26.256Z,61.62
2023-08-17T17:33:57.249Z,62.00
2023-08-17T17:36:26.838Z,61.67
2023-08-17T17:38:56.511Z,61.54
2023-08-17T17:41:26.158Z,61.37
2023-08-17T17:43:55.764Z,61.84
2023-08-17T17:46:25.495Z,61.99
2023-08-17T17:48:56.737Z,62.28
2023-08-17T17:51:26.422Z,62.23
2023-08-17T17:53:57.044Z,62.65
2023-08-17T17:56:40.713Z,63.24
2023-08-17T17:59:11.754Z,63.28
2023-08-17T18:01:41.681Z,63.72
2023-08-17T18:04:12.730Z,64.35
2023-08-17T18:06:42.220Z,64.32
2023-08-17T18:09:11.673Z,64.48
2023-08-17T18:11:41.398Z,64.36
2023-08-17T18:14:11.062Z,65.24
2023-08-17T18:16:40.661Z,64.79
2023-08-17T18:19:11.615Z,64.96
2023-08-17T18:21:41.139Z,65.51
2023-08-17T18:24:11.086Z,65.64
2023-08-17T18:26:40.733Z,65.48
2023-08-17T18:29:10.569Z,65.04
2023-08-17T18:31:42.282Z,66.70
2023-08-17T18:34:13.581Z,65.47
2023-08-17T18:36:43.082Z,65.94
2023-08-17T18:39:12.727Z,65.70
2023-08-17T18:41:42.392Z,66.26
2023-08-17T18:44:11.908Z,66.77
2023-08-17T18:48:51.332Z,67.30
2023-08-17T18:51:21.004Z,67.09
2023-08-17T18:53:50.607Z,67.13
2023-08-17T18:56:20.228Z,67.37
2023-08-17T18:58:49.826Z,67.19
2023-08-17T19:01:19.402Z,68.28
2023-08-17T19:03:50.587Z,68.28
2023-08-17T19:06:20.171Z,68.63
2023-08-17T19:08:49.766Z,69.78
2023-08-17T19:11:19.345Z,68.82
2023-08-17T19:13:48.856Z,68.87
2023-08-17T19:16:18.444Z,69.26
2023-08-17T19:18:49.498Z,70.04
2023-08-17T19:21:19.204Z,70.02
2023-08-17T19:23:48.820Z,70.58
2023-08-17T19:26:18.772Z,71.22
2023-08-17T19:28:48.466Z,71.02
2023-08-17T19:31:18.150Z,71.64
2023-08-17T19:33:49.393Z,71.68
2023-08-17T19:36:18.957Z,72.24
2023-08-17T19:38:48.524Z,72.73
2023-08-17T19:41:18.195Z,73.58
2023-08-17T19:43:47.714Z,74.27
2023-08-17T19:46:17.352Z,75.05
2023-08-17T19:48:51.341Z,75.40
2023-08-17T19:51:21.100Z,75.68
2023-08-17T19:53:50.569Z,76.08
2023-08-17T19:56:20.472Z,76.25
2023-08-17T19:58:49.860Z,76.65
2023-08-17T20:01:19.565Z,77.04
2023-08-17T20:03:51.649Z,77.35
2023-08-17T20:06:21.540Z,77.62
2023-08-17T20:08:51.155Z,78.22
2023-08-17T20:11:20.820Z,78.95
2023-08-17T20:13:50.555Z,78.84
2023-08-17T20:16:20.248Z,78.77
2023-08-17T20:18:51.268Z,78.86
2023-08-17T20:21:20.751Z,78.80
2023-08-17T20:23:50.935Z,79.46
2023-08-17T20:26:20.479Z,79.33
2023-08-17T20:28:49.960Z,79.42
2023-08-17T20:31:19.755Z,79.77
2023-08-17T20:33:50.806Z,79.88
2023-08-17T20:36:20.378Z,79.89
2023-08-17T20:38:49.863Z,80.46
2023-08-17T20:41:21.183Z,81.17
2023-08-17T20:43:50.801Z,80.56
2023-08-17T20:46:20.531Z,80.38
2023-08-17T20:48:52.160Z,80.55
2023-08-17T20:51:21.792Z,81.12
2023-08-17T20:53:51.345Z,81.91
2023-08-17T20:56:21.038Z,82.56
2023-08-17T20:58:50.580Z,82.48
2023-08-17T21:01:20.459Z,83.07
2023-08-17T21:03:51.589Z,83.14
2023-08-17T21:06:21.271Z,83.57
2023-08-17T21:08:50.781Z,83.74
2023-08-17T21:11:20.533Z,83.61
2023-08-17T21:13:50.097Z,84.21
2023-08-17T21:16:20.018Z,84.26
2023-08-17T21:18:51.197Z,83.94
2023-08-17T21:21:20.872Z,84.28
2023-08-17T21:23:50.442Z,84.30
2023-08-17T21:26:19.947Z,84.40
2023-08-17T21:28:49.802Z,85.05
2023-08-17T21:31:19.451Z,84.93
2023-08-17T21:33:50.506Z,85.05
2023-08-17T21:36:20.033Z,86.32
2023-08-17T21:38:49.531Z,86.25
2023-08-17T21:41:19.649Z,86.58
2023-08-17T21:43:49.221Z,86.20
2023-08-17T21:48:50.974Z,86.17
2023-08-17T21:51:20.582Z,85.64
2023-08-17T21:53:50.062Z,85.94
2023-08-17T21:56:19.767Z,85.94
2023-08-17T21:58:49.290Z,86.62
2023-08-17T22:01:18.797Z,86.97
2023-08-17T22:03:49.918Z,86.26
2023-08-17T22:06:19.469Z,86.25
2023-08-17T22:08:49.245Z,88.25
2023-08-17T22:11:18.660Z,88.76
2023-08-17T22:13:48.168Z,89.43
2023-08-17T22:16:17.618Z,88.54
2023-08-17T22:18:47.283Z,88.83
2023-08-17T22:21:18.654Z,89.22
2023-08-17T22:23:48.237Z,88.95
2023-08-17T22:26:17.710Z,89.85
2023-08-17T22:28:47.494Z,91.48
2023-08-17T22:31:17.048Z,90.47
2023-08-17T22:33:46.624Z,90.22
2023-08-17T22:36:17.620Z,91.08
2023-08-17T22:38:47.075Z,91.23
2023-08-17T22:41:16.515Z,90.59
2023-08-17T22:43:46.078Z,90.32
2023-08-17T22:46:15.799Z,90.36
2023-08-17T22:48:45.648Z,90.85
2023-08-17T22:51:17.452Z,90.75
2023-08-17T22:53:46.971Z,90.53
2023-08-17T22:56:16.535Z,89.54
2023-08-17T22:58:46.226Z,89.86
2023-08-17T23:01:16.307Z,90.01
2023-08-17T23:03:45.798Z,90.26
2023-08-17T23:06:16.807Z,90.65
2023-08-17T23:08:46.377Z,91.29
2023-08-17T23:11:15.912Z,91.26
2023-08-17T23:13:45.826Z,90.91
2023-08-17T23:16:15.359Z,90.85
2023-08-17T23:18:44.888Z,90.62
2023-08-17T23:21:14.427Z,89.89
2023-08-17T23:23:45.355Z,90.44
2023-08-17T23:26:14.970Z,92.19
2023-08-17T23:28:44.468Z,92.14
2023-08-17T23:31:14.233Z,92.12
2023-08-17T23:33:43.945Z,91.99
2023-08-17T23:36:14.512Z,91.86
2023-08-17T23:38:46.227Z,92.02
2023-08-17T23:41:15.912Z,93.42
2023-08-17T23:43:45.508Z,93.74
2023-08-17T23:46:15.184Z,94.00
2023-08-17T23:48:44.881Z,93.98
2023-08-17T23:51:14.330Z,94.05
2023-08-17T23:53:45.311Z,94.72
2023-08-17T23:56:14.984Z,93.86
2023-08-17T23:58:44.535Z,94.74
